Time;durP1;ratioP1;P1;durP2;ratioP2;P2;SDS_P1;SDS_P2;PMS_P1;PMS_P2;Temp;Humidity;BMP_temperature;BMP_pressure;BME280_temperature;BME280_humidity;BME280_pressure;Samples;Min_cycle;Max_cycle;Signal;HPM_P1;HPM_P2
2022/10/24 00:03:15;;;;;;;0.00;0.00;;;;;;;18.30;61.81;97645.69;8287977;28;20255;-74
2022/10/24 00:07:19;;;;;;;0.00;0.00;;;;;;;18.20;62.40;97647.34;8288205;28;20250;-74
2022/10/24 00:11:24;;;;;;;0.00;0.00;;;;;;;18.17;62.45;97641.41;8287883;28;20240;-74
2022/10/24 00:15:26;;;;;;;0.00;0.00;;;;;;;18.23;61.73;97642.72;8287756;28;20238;-73
2022/10/24 00:19:29;;;;;;;0.00;0.00;;;;;;;18.30;61.58;97643.88;8287670;28;20231;-73
2022/10/24 00:23:34;;;;;;;0.00;0.00;;;;;;;18.26;61.21;97636.38;8287578;28;20248;-73
2022/10/24 00:27:37;;;;;;;0.00;0.00;;;;;;;18.26;61.60;97624.13;8287763;28;20541;-73
2022/10/24 00:31:40;;;;;;;0.00;0.00;;;;;;;18.24;61.59;97630.44;8287364;28;20229;-73
2022/10/24 00:35:43;;;;;;;0.00;0.00;;;;;;;18.26;61.25;97642.47;8287411;28;20231;-73
2022/10/24 00:39:48;;;;;;;0.00;0.00;;;;;;;18.23;61.36;97653.19;8287335;28;20520;-73
2022/10/24 00:43:51;;;;;;;0.00;0.00;;;;;;;18.22;61.65;97646.31;8286891;28;20240;-73
2022/10/24 00:47:53;;;;;;;0.00;0.00;;;;;;;18.17;61.69;97644.03;8286553;28;20259;-73
2022/10/24 00:52:00;;;;;;;0.00;0.00;;;;;;;18.26;61.46;97659.97;8286483;28;20249;-73
2022/10/24 00:56:05;;;;;;;0.00;0.00;;;;;;;18.23;61.38;97661.06;8286876;28;20530;-73
2022/10/24 01:00:12;;;;;;;0.00;0.00;;;;;;;18.19;61.64;97653.56;8286565;28;20250;-73
2022/10/24 01:04:15;;;;;;;0.00;0.00;;;;;;;18.33;61.27;97655.91;8285623;28;20239;-73
2022/10/24 01:08:25;;;;;;;0.00;0.00;;;;;;;18.22;61.51;97669.03;8285338;28;20301;-73
2022/10/24 01:12:35;;;;;;;0.00;0.00;;;;;;;18.29;61.07;97673.66;8285957;28;20237;-73
2022/10/24 01:16:41;;;;;;;0.00;0.00;;;;;;;18.27;61.20;97672.94;8285836;28;20243;-73
2022/10/24 01:21:03;;;;;;;0.00;0.00;;;;;;;18.16;61.40;97671.22;8285965;28;20252;-73
2022/10/24 01:25:10;;;;;;;0.00;0.00;;;;;;;18.21;61.94;97668.22;8285629;28;20241;-73
2022/10/24 01:29:19;;;;;;;0.00;0.00;;;;;;;18.14;61.94;97669.66;8285422;28;20239;-73
2022/10/24 01:33:26;;;;;;;0.00;0.00;;;;;;;18.15;62.23;97666.91;8285303;28;20410;-73
2022/10/24 01:37:33;;;;;;;0.00;0.00;;;;;;;18.08;62.14;97670.97;8285419;28;20227;-73
2022/10/24 01:41:37;;;;;;;0.00;0.00;;;;;;;18.05;62.75;97673.84;8285275;28;20285;-73
2022/10/24 01:45:42;;;;;;;0.00;0.00;;;;;;;18.02;62.77;97683.75;8285166;28;20443;-73
2022/10/24 01:49:51;;;;;;;0.00;0.00;;;;;;;17.93;63.32;97683.53;8285075;28;20236;-73
2022/10/24 01:53:54;;;;;;;0.00;0.00;;;;;;;18.01;63.16;97680.28;8284478;28;20235;-73
2022/10/24 01:57:57;;;;;;;0.00;0.00;;;;;;;18.01;63.30;97671.59;8284636;28;20240;-73
2022/10/24 02:02:03;;;;;;;0.00;0.00;;;;;;;17.97;63.64;97676.22;8284378;28;20549;-73
2022/10/24 02:06:10;;;;;;;0.00;0.00;;;;;;;17.79;64.29;97673.25;8284305;28;20259;-73
2022/10/24 02:10:17;;;;;;;0.00;0.00;;;;;;;17.95;63.88;97663.28;8284233;28;20274;-73
2022/10/24 02:14:24;;;;;;;0.00;0.00;;;;;;;17.86;64.32;97665.75;8284196;28;20227;-73
2022/10/24 02:18:27;;;;;;;0.00;0.00;;;;;;;17.91;63.76;97658.38;8284075;28;20239;-73
2022/10/24 02:22:38;;;;;;;0.00;0.00;;;;;;;17.95;63.56;97658.03;8283778;28;20234;-73
2022/10/24 02:26:48;;;;;;;0.00;0.00;;;;;;;18.01;63.60;97656.72;8283986;28;20525;-73
2022/10/24 02:30:54;;;;;;;0.00;0.00;;;;;;;17.94;64.03;97645.88;8283325;28;20541;-73
2022/10/24 02:34:58;;;;;;;0.00;0.00;;;;;;;17.86;63.85;97642.19;8282715;28;20282;-73
2022/10/24 02:39:05;;;;;;;0.00;0.00;;;;;;;17.83;64.37;97642.41;8283150;28;20239;-73
2022/10/24 02:43:08;;;;;;;0.00;0.00;;;;;;;17.87;64.23;97636.00;8282962;28;20269;-73
2022/10/24 02:47:13;;;;;;;0.00;0.00;;;;;;;17.77;64.86;97641.13;8282808;28;20229;-73
2022/10/24 02:51:17;;;;;;;0.00;0.00;;;;;;;17.81;64.38;97650.38;8282818;28;20234;-73
2022/10/24 02:55:22;;;;;;;0.00;0.00;;;;;;;17.85;64.28;97653.63;8282625;28;20253;-73
2022/10/24 02:59:24;;;;;;;0.00;0.00;;;;;;;17.84;64.13;97663.28;8282748;28;20278;-73
2022/10/24 03:03:27;;;;;;;0.00;0.00;;;;;;;17.74;64.69;97655.28;8282294;28;20472;-73
2022/10/24 03:07:30;;;;;;;0.00;0.00;;;;;;;17.73;64.53;97666.72;8282460;28;20444;-73
2022/10/24 03:11:34;;;;;;;0.00;0.00;;;;;;;17.79;64.37;97675.88;8282424;28;20229;-73
2022/10/24 03:15:37;;;;;;;0.00;0.00;;;;;;;17.73;64.83;97666.72;8282192;28;20240;-73
2022/10/24 03:19:40;;;;;;;0.00;0.00;;;;;;;17.61;64.89;97665.06;8282183;28;20594;-73
2022/10/24 03:23:42;;;;;;;0.00;0.00;;;;;;;17.67;64.68;97661.09;8282181;28;20512;-73
2022/10/24 03:27:46;;;;;;;0.00;0.00;;;;;;;17.61;65.13;97670.31;8282250;28;20247;-73
2022/10/24 03:31:49;;;;;;;0.00;0.00;;;;;;;17.60;65.10;97660.75;8291187;28;20429;-73
2022/10/24 03:35:53;;;;;;;0.00;0.00;;;;;;;17.54;65.54;97656.00;8292429;28;20225;-73
2022/10/24 03:39:56;;;;;;;0.00;0.00;;;;;;;17.36;66.07;97653.88;8292923;28;20429;-73
2022/10/24 03:44:00;;;;;;;0.00;0.00;;;;;;;17.14;67.09;97665.13;8292755;28;20244;-73
2022/10/24 03:48:02;;;;;;;0.00;0.00;;;;;;;17.05;67.38;97662.38;8292702;28;20531;-73
2022/10/24 03:52:05;;;;;;;0.00;0.00;;;;;;;17.04;67.60;97651.09;8292395;28;20575;-73
2022/10/24 03:56:08;;;;;;;0.00;0.00;;;;;;;17.24;66.27;97644.31;8292362;28;20234;-73
2022/10/24 04:00:14;;;;;;;0.00;0.00;;;;;;;17.08;66.85;97642.06;8292376;28;20253;-73
2022/10/24 04:04:17;;;;;;;0.00;0.00;;;;;;;17.19;66.35;97654.31;8292060;28;20239;-73
2022/10/24 04:08:20;;;;;;;0.00;0.00;;;;;;;17.22;66.34;97656.69;8291895;28;20229;-73
2022/10/24 04:12:23;;;;;;;0.00;0.00;;;;;;;17.23;66.47;97655.75;8292253;28;20237;-73
2022/10/24 04:16:27;;;;;;;0.00;0.00;;;;;;;17.13;66.67;97658.22;8292212;28;20229;-74
2022/10/24 04:20:30;;;;;;;0.00;0.00;;;;;;;17.23;66.30;97661.00;8292260;28;20536;-73
2022/10/24 04:24:33;;;;;;;0.00;0.00;;;;;;;17.29;65.98;97675.41;8291864;28;20299;-73
2022/10/24 04:28:35;;;;;;;0.00;0.00;;;;;;;16.72;68.31;97677.84;8292209;28;20273;-74
2022/10/24 04:32:40;;;;;;;0.00;0.00;;;;;;;16.97;67.78;97676.88;8291858;28;20234;-73
2022/10/24 04:36:43;;;;;;;0.00;0.00;;;;;;;16.64;68.61;97668.88;8291795;28;20234;-73
2022/10/24 04:40:47;;;;;;;0.00;0.00;;;;;;;16.67;68.22;97666.06;8287666;28;20237;-75
2022/10/24 04:44:50;;;;;;;0.00;0.00;;;;;;;16.63;69.56;97673.28;8285851;28;20238;-71
2022/10/24 04:48:54;;;;;;;0.00;0.00;;;;;;;16.89;67.73;97668.78;8285905;28;20229;-73
2022/10/24 04:52:57;;;;;;;0.00;0.00;;;;;;;16.92;67.60;97670.31;8286552;28;20234;-75
2022/10/24 04:57:00;;;;;;;0.00;0.00;;;;;;;16.77;68.32;97661.78;8286355;28;20229;-75
2022/10/24 05:01:03;;;;;;;0.00;0.00;;;;;;;16.34;70.63;97664.97;8286096;28;20295;-75
2022/10/24 05:05:09;;;;;;;0.00;0.00;;;;;;;16.33;70.65;97660.66;8286011;28;20301;-74
2022/10/24 05:09:11;;;;;;;0.00;0.00;;;;;;;16.22;70.70;97649.22;8286016;28;20244;-74
2022/10/24 05:13:14;;;;;;;0.00;0.00;;;;;;;16.49;70.50;97649.94;8286051;28;20234;-75
2022/10/24 05:17:22;;;;;;;0.00;0.00;;;;;;;16.21;71.33;97641.50;8285697;28;20262;-75
2022/10/24 05:21:26;;;;;;;0.00;0.00;;;;;;;16.56;69.67;97641.53;8285212;28;20229;-75
2022/10/24 05:25:29;;;;;;;0.00;0.00;;;;;;;16.75;68.81;97641.00;8284833;28;20236;-75
2022/10/24 05:29:32;;;;;;;0.00;0.00;;;;;;;16.71;69.07;97629.09;8285235;28;20232;-75
2022/10/24 05:33:35;;;;;;;0.00;0.00;;;;;;;16.74;68.95;97626.25;8284820;28;20241;-75
2022/10/24 05:37:39;;;;;;;0.00;0.00;;;;;;;16.56;70.42;97615.41;8284763;28;20233;-75
2022/10/24 05:41:41;;;;;;;0.00;0.00;;;;;;;16.26;71.44;97608.03;8284818;28;20229;-75
2022/10/24 05:45:49;;;;;;;0.00;0.00;;;;;;;16.61;69.98;97605.41;8284666;28;20257;-75
2022/10/24 05:49:53;;;;;;;0.00;0.00;;;;;;;16.61;70.00;97602.81;8284203;28;20233;-74
2022/10/24 05:53:57;;;;;;;0.00;0.00;;;;;;;16.55;70.45;97598.03;8283585;28;20529;-75
2022/10/24 05:58:00;;;;;;;0.00;0.00;;;;;;;16.48;70.68;97609.06;8284016;28;20539;-75
2022/10/24 06:02:03;;;;;;;0.00;0.00;;;;;;;16.71;69.76;97615.19;8283824;28;20241;-75
2022/10/24 06:06:07;;;;;;;0.00;0.00;;;;;;;16.80;69.04;97622.34;8283499;28;20248;-75
2022/10/24 06:10:12;;;;;;;0.00;0.00;;;;;;;16.89;68.44;97639.19;8283636;28;20521;-75
2022/10/24 06:14:15;;;;;;;0.00;0.00;;;;;;;16.83;68.85;97655.31;8283594;28;20235;-75
2022/10/24 06:18:18;;;;;;;0.00;0.00;;;;;;;16.89;68.83;97637.38;8283263;28;20233;-75
2022/10/24 06:22:22;;;;;;;0.00;0.00;;;;;;;16.95;68.18;97636.09;8283388;28;20229;-75
2022/10/24 06:26:26;;;;;;;0.00;0.00;;;;;;;16.80;68.68;97654.56;8283157;28;20234;-75
2022/10/24 06:30:29;;;;;;;0.00;0.00;;;;;;;16.80;69.28;97661.56;8282941;28;20228;-75
2022/10/24 06:34:32;;;;;;;0.00;0.00;;;;;;;16.90;69.07;97656.53;8283250;28;20316;-75
2022/10/24 06:38:35;;;;;;;0.00;0.00;;;;;;;16.91;69.42;97660.81;8282929;28;20233;-75
2022/10/24 06:42:39;;;;;;;0.00;0.00;;;;;;;16.94;68.93;97666.63;8282715;28;20309;-75
2022/10/24 06:46:42;;;;;;;0.00;0.00;;;;;;;16.94;69.02;97650.09;8282866;28;20243;-76
2022/10/24 06:50:45;;;;;;;0.00;0.00;;;;;;;16.90;69.33;97649.50;8282763;28;20233;-75
2022/10/24 06:54:48;;;;;;;0.00;0.00;;;;;;;16.82;70.00;97636.16;8282410;28;20242;-76
2022/10/24 06:58:52;;;;;;;0.00;0.00;;;;;;;16.89;69.43;97621.69;8282499;28;20260;-75
2022/10/24 07:02:55;;;;;;;0.00;0.00;;;;;;;17.02;68.79;97637.31;8281277;28;20455;-75
2022/10/24 07:06:58;;;;;;;0.00;0.00;;;;;;;17.17;68.16;97672.75;8281990;28;20230;-75
2022/10/24 07:11:00;;;;;;;0.00;0.00;;;;;;;17.27;67.87;97708.66;8282381;28;20233;-75
2022/10/24 07:15:06;;;;;;;0.00;0.00;;;;;;;17.27;68.18;97779.31;8282546;28;20248;-75
2022/10/24 07:19:08;;;;;;;0.00;0.00;;;;;;;17.02;68.80;97806.47;8282504;28;20237;-76
2022/10/24 07:23:11;;;;;;;0.00;0.00;;;;;;;16.84;72.03;97837.44;8281965;28;20430;-76
2022/10/24 07:27:14;;;;;;;0.00;0.00;;;;;;;16.86;71.48;97844.22;8282173;28;20544;-76
2022/10/24 07:31:19;;;;;;;0.00;0.00;;;;;;;16.83;71.47;97859.28;8282036;28;20222;-76
2022/10/24 07:35:22;;;;;;;0.00;0.00;;;;;;;16.87;71.68;97850.28;8282081;28;20233;-76
2022/10/24 07:39:25;;;;;;;0.00;0.00;;;;;;;16.89;72.14;97848.41;8282145;28;20502;-76
2022/10/24 07:43:28;;;;;;;0.00;0.00;;;;;;;16.96;71.63;97850.47;8281624;28;20229;-76
2022/10/24 07:47:32;;;;;;;0.00;0.00;;;;;;;17.04;71.90;97828.13;8281801;28;20241;-75
2022/10/24 07:51:35;;;;;;;0.00;0.00;;;;;;;17.08;71.73;97800.81;8282124;28;20247;-75
2022/10/24 07:55:38;;;;;;;0.00;0.00;;;;;;;17.17;71.06;97764.34;8281732;28;20237;-76
2022/10/24 07:59:41;;;;;;;0.00;0.00;;;;;;;17.14;71.15;97761.13;8281932;28;20236;-76
2022/10/24 08:03:46;;;;;;;0.00;0.00;;;;;;;17.16;71.21;97780.97;8281401;28;20248;-76
2022/10/24 08:07:49;;;;;;;0.00;0.00;;;;;;;17.13;71.75;97785.59;8281862;28;20250;-76
2022/10/24 08:12:07;;;;;;;0.00;0.00;;;;;;;17.11;71.33;97753.47;8281211;28;20288;-76
2022/10/24 08:16:12;;;;;;;0.00;0.00;;;;;;;17.02;71.66;97738.47;8284701;28;20244;-75
2022/10/24 08:20:16;;;;;;;0.00;0.00;;;;;;;17.10;71.25;97767.53;8287745;28;20512;-76
2022/10/24 08:24:19;;;;;;;0.00;0.00;;;;;;;16.91;71.94;97741.91;8287257;28;20234;-76
2022/10/24 08:28:22;;;;;;;0.00;0.00;;;;;;;16.67;72.47;97732.22;8287508;28;20233;-76
2022/10/24 08:32:25;;;;;;;0.00;0.00;;;;;;;16.94;72.07;97759.97;8287239;28;20230;-76
2022/10/24 08:36:30;;;;;;;0.00;0.00;;;;;;;17.02;71.41;97775.94;8287451;28;20256;-76
2022/10/24 08:40:33;;;;;;;0.00;0.00;;;;;;;16.96;72.42;97740.59;8287143;28;20244;-76
2022/10/24 08:44:38;;;;;;;0.00;0.00;;;;;;;16.94;72.31;97741.66;8287017;28;20280;-77
2022/10/24 08:48:44;;;;;;;0.00;0.00;;;;;;;17.01;72.97;97740.25;8287057;28;20234;-76
2022/10/24 08:52:50;;;;;;;0.00;0.00;;;;;;;16.90;73.43;97738.41;8286643;28;20233;-77
2022/10/24 08:56:56;;;;;;;0.00;0.00;;;;;;;16.98;73.76;97733.47;8286260;28;20249;-77
2022/10/24 09:01:01;;;;;;;0.00;0.00;;;;;;;16.37;77.06;97728.31;8286508;28;20250;-77
2022/10/24 09:05:14;;;;;;;0.00;0.00;;;;;;;16.80;75.25;97712.09;8286229;28;20272;-77
2022/10/24 09:09:22;;;;;;;0.00;0.00;;;;;;;17.33;73.95;97730.00;8286985;28;20221;-77
2022/10/24 09:13:26;;;;;;;0.00;0.00;;;;;;;17.47;73.10;97738.59;8287375;28;20229;-78
2022/10/24 09:17:31;;;;;;;0.00;0.00;;;;;;;17.13;73.88;97743.72;8286516;28;20236;-78
2022/10/24 09:21:34;;;;;;;0.00;0.00;;;;;;;17.47;73.56;97731.56;8286242;28;20233;-78
2022/10/24 09:25:41;;;;;;;0.00;0.00;;;;;;;17.42;71.27;97743.31;8285949;28;20248;-77
2022/10/24 09:29:44;;;;;;;0.00;0.00;;;;;;;17.29;73.34;97751.28;8285172;28;20527;-75
2022/10/24 09:33:49;;;;;;;0.00;0.00;;;;;;;16.94;74.30;97750.31;8286141;28;20564;-75
2022/10/24 09:37:54;;;;;;;0.00;0.00;;;;;;;17.20;73.23;97755.41;8285639;28;20234;-76
2022/10/24 09:41:59;;;;;;;0.00;0.00;;;;;;;17.45;72.70;97766.66;8277390;28;20234;-76
2022/10/24 09:46:04;;;;;;;0.00;0.00;;;;;;;17.38;72.36;97789.84;8285265;28;20405;-76
2022/10/24 09:50:19;;;;;;;0.00;0.00;;;;;;;17.36;72.45;97799.59;8285497;28;20236;-75
2022/10/24 09:54:25;;;;;;;0.00;0.00;;;;;;;17.22;73.38;97803.22;8285163;28;20237;-80
2022/10/24 09:58:32;;;;;;;0.00;0.00;;;;;;;16.98;74.33;97806.72;8284708;28;20234;-76
2022/10/24 10:02:36;;;;;;;0.00;0.00;;;;;;;17.00;75.38;97796.97;8284181;28;20338;-75
2022/10/24 10:06:43;;;;;;;0.00;0.00;;;;;;;16.94;75.35;97788.72;8284413;28;20254;-76
2022/10/24 10:10:56;;;;;;;0.00;0.00;;;;;;;17.04;75.32;97770.56;8284683;28;20230;-76
2022/10/24 10:15:01;;;;;;;0.00;0.00;;;;;;;17.15;74.72;97773.22;8276476;28;20254;-75
2022/10/24 10:19:07;;;;;;;0.00;0.00;;;;;;;17.17;75.19;97768.72;8283943;28;20256;-75
2022/10/24 10:23:20;;;;;;;0.00;0.00;;;;;;;17.07;75.81;97773.81;8283935;28;20235;-78
2022/10/24 10:27:26;;;;;;;0.00;0.00;;;;;;;17.16;75.34;97775.75;8283598;28;20237;-79
2022/10/24 10:31:39;;;;;;;0.00;0.00;;;;;;;17.40;74.25;97780.06;8284127;28;20233;-79
2022/10/24 10:35:45;;;;;;;0.00;0.00;;;;;;;17.30;75.47;97777.31;8283905;28;20233;-79
2022/10/24 10:40:00;;;;;;;0.00;0.00;;;;;;;17.34;75.35;97786.63;8282927;28;20528;-78
2022/10/24 10:44:13;;;;;;;0.00;0.00;;;;;;;17.51;74.28;97789.75;8283058;28;20225;-79
2022/10/24 10:48:29;;;;;;;0.00;0.00;;;;;;;17.47;75.28;97783.09;8283034;28;20229;-79
2022/10/24 10:52:33;;;;;;;0.00;0.00;;;;;;;17.54;75.23;97800.00;8283380;28;20227;-79
2022/10/24 10:56:41;;;;;;;0.00;0.00;;;;;;;17.46;75.71;97802.34;8283201;28;20377;-79
2022/10/24 11:00:51;;;;;;;0.00;0.00;;;;;;;17.37;76.11;97806.50;8282984;28;20529;-79
2022/10/24 11:04:58;;;;;;;0.00;0.00;;;;;;;17.52;76.15;97801.91;8283199;28;20230;-79
2022/10/24 11:09:23;;;;;;;0.00;0.00;;;;;;;17.13;78.10;97775.97;8284699;28;20242;-80
2022/10/24 11:13:29;;;;;;;0.10;0.10;;;;;;;17.39;77.37;97775.81;8282873;28;20226;-79
2022/10/24 11:17:41;;;;;;;0.00;0.00;;;;;;;17.41;77.02;97771.28;8284594;28;20248;-82
2022/10/24 11:21:46;;;;;;;0.00;0.00;;;;;;;17.47;76.93;97775.22;8283958;28;20560;-79
2022/10/24 11:25:50;;;;;;;0.00;0.00;;;;;;;17.68;76.16;97770.16;8285382;28;20233;-85
2022/10/24 11:29:55;;;;;;;0.00;0.00;;;;;;;17.74;75.58;97762.66;8284393;28;20229;-78
2022/10/24 11:34:01;;;;;;;0.00;0.00;;;;;;;17.79;75.11;97763.13;8283698;28;20554;-79
2022/10/24 11:38:08;;;;;;;0.00;0.00;;;;;;;17.62;76.02;97757.53;8282897;28;20248;-77
2022/10/24 11:42:16;;;;;;;0.00;0.00;;;;;;;17.85;75.31;97750.56;8282138;28;20238;-79
2022/10/24 11:46:20;;;;;;;0.00;0.00;;;;;;;17.88;75.28;97753.78;8281810;28;20234;-79
2022/10/24 11:50:27;;;;;;;0.00;0.00;;;;;;;17.98;74.71;97751.25;8284097;28;20279;-79
2022/10/24 11:54:34;;;;;;;0.00;0.00;;;;;;;18.05;74.09;97748.97;8288901;28;20227;-76
2022/10/24 11:58:46;;;;;;;0.00;0.00;;;;;;;17.88;74.48;97751.16;8288524;28;20281;-79
2022/10/24 12:03:19;;;;;;;0.00;0.00;;;;;;;17.84;74.48;97754.97;8287957;28;20572;-78
2022/10/24 12:08:12;;;;;;;0.00;0.00;;;;;;;17.99;74.00;97750.28;8287010;28;20555;-79
2022/10/24 12:12:25;;;;;;;0.00;0.00;;;;;;;18.05;73.89;97768.19;8287732;28;20235;-79
2022/10/24 12:16:37;;;;;;;0.00;0.00;;;;;;;18.08;73.79;97756.63;8288332;28;20230;-78
2022/10/24 12:20:41;;;;;;;0.00;0.00;;;;;;;18.08;73.54;97748.75;8287825;28;20238;-78
2022/10/24 12:24:44;;;;;;;0.00;0.00;;;;;;;17.98;73.96;97741.59;8287658;28;20242;-79
2022/10/24 12:29:04;;;;;;;0.00;0.00;;;;;;;18.01;73.39;97745.78;8287671;28;20536;-79
2022/10/24 12:33:11;;;;;;;0.00;0.00;;;;;;;18.05;73.05;97741.13;8286997;28;20403;-78
2022/10/24 12:37:34;;;;;;;0.00;0.00;;;;;;;18.22;72.51;97743.28;8287233;28;20238;-78
2022/10/24 12:41:39;;;;;;;0.00;0.00;;;;;;;18.21;72.33;97740.75;8287176;28;20238;-78
2022/10/24 12:45:49;;;;;;;0.00;0.00;;;;;;;18.20;72.73;97736.47;8287175;28;20467;-78
2022/10/24 12:49:51;;;;;;;0.00;0.00;;;;;;;18.06;72.77;97725.28;8286061;28;20526;-78
2022/10/24 12:54:13;;;;;;;0.00;0.00;;;;;;;17.92;72.61;97715.06;8286561;28;20514;-80
2022/10/24 12:58:22;;;;;;;0.00;0.00;;;;;;;17.99;72.47;97700.50;8286826;28;20553;-78
2022/10/24 13:02:55;;;;;;;0.00;0.00;;;;;;;17.98;72.46;97714.59;8285481;28;20265;-78
2022/10/24 13:07:22;;;;;;;0.00;0.00;;;;;;;17.97;71.82;97721.63;8276822;28;20242;-78
2022/10/24 13:11:35;;;;;;;0.00;0.00;;;;;;;17.87;72.30;97701.50;8286313;28;20230;-78
2022/10/24 13:15:45;;;;;;;0.00;0.00;;;;;;;17.93;72.68;97711.47;8285807;28;20234;-78
2022/10/24 13:20:02;;;;;;;0.00;0.00;;;;;;;17.99;72.43;97695.28;8285297;28;20241;-79
2022/10/24 13:24:20;;;;;;;0.00;0.00;;;;;;;17.77;72.76;97689.09;8285368;28;20425;-78
2022/10/24 13:28:46;;;;;;;0.00;0.00;;;;;;;17.69;72.00;97682.78;8285419;28;20230;-78
2022/10/24 13:32:49;;;;;;;0.00;0.00;;;;;;;17.89;71.66;97662.91;8275335;28;20233;-78
2022/10/24 13:36:59;;;;;;;0.00;0.00;;;;;;;17.80;71.43;97646.13;8285508;28;20235;-79
2022/10/24 13:41:03;;;;;;;0.00;0.00;;;;;;;17.73;70.04;97671.13;8278242;28;20229;-78
2022/10/24 13:45:19;;;;;;;0.00;0.00;;;;;;;17.73;70.71;97698.13;8285732;28;20238;-77
2022/10/24 13:49:25;;;;;;;0.00;0.00;;;;;;;17.82;70.35;97696.59;8285776;28;20231;-79
2022/10/24 13:53:32;;;;;;;0.00;0.00;;;;;;;17.92;69.69;97709.84;8285179;28;20237;-80
2022/10/24 13:57:49;;;;;;;0.00;0.00;;;;;;;17.83;70.57;97703.47;8285172;28;20230;-80
2022/10/24 14:01:52;;;;;;;0.00;0.00;;;;;;;17.87;70.49;97704.94;8284849;28;20237;-79
2022/10/24 14:05:58;;;;;;;0.00;0.00;;;;;;;17.97;69.82;97697.19;8290139;28;20231;-79
2022/10/24 14:10:07;;;;;;;0.00;0.00;;;;;;;17.94;70.76;97698.28;8284484;28;20250;-80
2022/10/24 14:14:24;;;;;;;0.00;0.00;;;;;;;17.96;70.57;97706.84;8284454;28;20230;-79
2022/10/24 14:18:27;;;;;;;0.00;0.00;;;;;;;18.04;70.12;97711.47;8284093;28;20565;-79
2022/10/24 14:22:38;;;;;;;0.00;0.00;;;;;;;18.17;69.88;97713.97;8284074;28;20240;-78
2022/10/24 14:26:44;;;;;;;0.00;0.00;;;;;;;18.06;71.13;97722.66;8283905;28;20231;-78
2022/10/24 14:30:53;;;;;;;0.00;0.00;;;;;;;18.08;70.79;97709.44;8283532;28;20256;-78
2022/10/24 14:34:58;;;;;;;0.00;0.00;;;;;;;17.98;71.13;97725.88;8275725;28;20237;-77
2022/10/24 14:39:01;;;;;;;0.00;0.00;;;;;;;18.14;70.62;97725.53;8283044;28;20405;-78
2022/10/24 14:43:06;;;;;;;0.10;0.10;;;;;;;18.14;70.78;97741.25;8283239;28;20238;-77
2022/10/24 14:47:20;;;;;;;0.00;0.00;;;;;;;17.97;71.58;97736.47;8283290;28;20251;-78
2022/10/24 14:51:27;;;;;;;0.00;0.00;;;;;;;18.13;70.80;97730.88;8282637;28;20230;-78
2022/10/24 14:55:30;;;;;;;0.00;0.00;;;;;;;18.04;70.97;97729.81;8283190;28;20234;-79
2022/10/24 14:59:36;;;;;;;0.00;0.00;;;;;;;18.09;70.89;97734.72;8283547;28;20239;-77
2022/10/24 15:03:50;;;;;;;0.00;0.00;;;;;;;18.13;70.31;97730.88;8282072;28;20239;-79
2022/10/24 15:07:55;;;;;;;0.00;0.00;;;;;;;18.13;70.57;97726.47;8282089;28;20246;-78
2022/10/24 15:12:25;;;;;;;0.00;0.00;;;;;;;18.10;70.60;97739.81;8282267;28;20230;-79
2022/10/24 15:16:34;;;;;;;0.00;0.00;;;;;;;18.06;70.38;97738.38;8282383;28;20238;-79
2022/10/24 15:20:39;;;;;;;0.00;0.00;;;;;;;18.10;70.07;97738.97;8282329;28;20545;-78
2022/10/24 15:24:42;;;;;;;0.00;0.00;;;;;;;17.97;70.77;97734.72;8281684;28;20285;-78
2022/10/24 15:28:48;;;;;;;0.00;0.00;;;;;;;18.08;70.38;97733.84;8281525;28;20444;-78
2022/10/24 15:32:55;;;;;;;0.00;0.00;;;;;;;18.11;69.52;97733.63;8282218;28;20249;-78
2022/10/24 15:36:58;;;;;;;0.00;0.00;;;;;;;17.97;70.33;97733.88;8274511;28;20231;-79
2022/10/24 15:41:01;;;;;;;0.00;0.00;;;;;;;17.96;70.68;97725.19;8282098;28;20239;-79
2022/10/24 15:45:06;;;;;;;0.00;0.00;;;;;;;17.98;70.17;97725.88;8282302;28;20239;-79
2022/10/24 15:49:11;;;;;;;0.00;0.00;;;;;;;17.97;69.93;97731.25;8282213;28;20235;-79
2022/10/24 15:53:16;;;;;;;0.00;0.00;;;;;;;17.93;70.00;97714.97;8281476;28;20518;-79
2022/10/24 15:57:19;;;;;;;0.00;0.00;;;;;;;17.82;70.27;97716.69;8281913;28;20242;-79
2022/10/24 16:01:25;;;;;;;0.00;0.00;;;;;;;17.84;69.84;97712.16;8282235;28;20229;-79
2022/10/24 16:05:33;;;;;;;0.00;0.00;;;;;;;17.78;69.84;97714.34;8283123;28;20299;-79
2022/10/24 16:09:36;;;;;;;0.10;0.10;;;;;;;17.79;69.96;97723.84;8283160;28;20417;-79
2022/10/24 16:13:39;;;;;;;0.00;0.00;;;;;;;17.69;69.85;97733.38;8282850;28;20243;-79
2022/10/24 16:17:42;;;;;;;0.00;0.00;;;;;;;17.64;70.52;97734.69;8281984;28;20426;-79
2022/10/24 16:21:47;;;;;;;0.00;0.00;;;;;;;17.64;69.60;97739.91;8281256;28;20438;-78
2022/10/24 16:25:50;;;;;;;0.00;0.00;;;;;;;17.53;70.15;97741.56;8281302;28;20239;-78
2022/10/24 16:29:53;;;;;;;0.00;0.00;;;;;;;17.59;69.42;97741.09;8280205;28;20255;-78
2022/10/24 16:33:56;;;;;;;0.00;0.00;;;;;;;17.56;69.60;97748.34;8279859;28;20244;-77
2022/10/24 16:38:01;;;;;;;0.00;0.00;;;;;;;17.46;69.39;97750.00;8284396;28;20535;-78
2022/10/24 16:42:06;;;;;;;0.00;0.00;;;;;;;17.46;69.18;97757.84;8286284;28;20239;-79
2022/10/24 16:46:13;;;;;;;0.00;0.00;;;;;;;17.47;69.02;97760.34;8286543;28;20229;-79
2022/10/24 16:50:22;;;;;;;0.00;0.00;;;;;;;17.36;69.09;97770.78;8286351;28;20229;-81
2022/10/24 16:54:26;;;;;;;0.00;0.00;;;;;;;17.35;68.86;97772.59;8286463;28;20233;-77
2022/10/24 16:58:29;;;;;;;0.00;0.00;;;;;;;17.31;68.63;97768.53;8286996;28;20240;-78
2022/10/24 17:02:32;;;;;;;0.00;0.00;;;;;;;17.25;69.39;97770.75;8286659;28;20241;-80
2022/10/24 17:06:35;;;;;;;0.00;0.00;;;;;;;17.24;68.88;97769.94;8286508;28;20258;-81
2022/10/24 17:10:39;;;;;;;0.00;0.00;;;;;;;17.26;68.45;97775.88;8287497;28;20265;-83
2022/10/24 17:14:42;;;;;;;0.00;0.00;;;;;;;17.18;68.55;97775.63;8288977;28;20240;-83
2022/10/24 17:18:47;;;;;;;0.00;0.00;;;;;;;16.91;69.08;97770.66;8288020;28;20237;-81
2022/10/24 17:23:07;;;;;;;0.00;0.00;;;;;;;17.14;68.95;97767.16;8286359;28;20225;-80
2022/10/24 17:27:13;;;;;;;0.00;0.00;;;;;;;17.13;68.28;97775.97;8287700;28;20249;-83
2022/10/24 17:31:16;;;;;;;0.00;0.00;;;;;;;17.17;68.01;97777.44;8292513;28;20283;-83
2022/10/24 17:35:21;;;;;;;0.00;0.00;;;;;;;16.92;68.43;97782.78;8295222;28;20229;-86
2022/10/24 17:39:27;;;;;;;0.00;0.00;;;;;;;17.00;68.22;97785.66;8296626;28;20229;-85
2022/10/24 17:43:31;;;;;;;0.00;0.00;;;;;;;16.93;68.49;97784.47;8295598;28;20406;-80
2022/10/24 17:47:34;;;;;;;0.00;0.00;;;;;;;16.92;68.27;97785.41;8293017;28;20234;-87
2022/10/24 17:51:39;;;;;;;0.00;0.00;;;;;;;16.78;69.08;97781.97;8282886;28;20234;-86
2022/10/24 17:55:42;;;;;;;0.00;0.00;;;;;;;17.00;67.95;97790.88;8287977;28;20546;-81
2022/10/24 17:59:52;;;;;;;0.00;0.00;;;;;;;17.04;68.04;97800.22;8285655;28;20436;-75
2022/10/24 18:03:55;;;;;;;0.00;0.00;;;;;;;17.07;67.82;97799.97;8276793;28;20261;-85
2022/10/24 18:07:58;;;;;;;0.00;0.00;;;;;;;16.99;67.69;97795.28;8283757;28;20269;-75
2022/10/24 18:12:01;;;;;;;0.00;0.00;;;;;;;16.96;67.74;97794.69;8283615;28;20241;-74
2022/10/24 18:16:08;;;;;;;0.00;0.00;;;;;;;16.75;68.55;97803.13;8283554;28;20240;-77
2022/10/24 18:20:11;;;;;;;0.00;0.00;;;;;;;16.98;67.79;97805.88;8285361;28;20230;-76
2022/10/24 18:24:14;;;;;;;0.00;0.00;;;;;;;16.86;67.28;97804.97;8283782;28;20232;-80
2022/10/24 18:28:17;;;;;;;0.00;0.00;;;;;;;17.01;67.56;97803.03;8283857;28;20253;-81
2022/10/24 18:32:21;;;;;;;0.00;0.00;;;;;;;16.91;68.04;97808.09;8283569;28;20225;-79
2022/10/24 18:36:26;;;;;;;0.00;0.00;;;;;;;16.88;67.57;97804.88;8289886;28;20521;-89
2022/10/24 18:40:32;;;;;;;0.00;0.00;;;;;;;17.15;73.52;97809.88;8283099;28;20241;-81
2022/10/24 18:44:36;;;;;;;0.00;0.00;;;;;;;17.10;69.95;97814.63;8282549;28;20233;-80
2022/10/24 18:48:41;;;;;;;0.00;0.00;;;;;;;16.95;68.22;97822.63;8282301;28;20572;-74
2022/10/24 18:52:49;;;;;;;0.00;0.00;;;;;;;16.86;67.21;97818.06;8282293;28;20293;-76
2022/10/24 18:56:52;;;;;;;0.00;0.00;;;;;;;16.91;67.43;97818.56;8282295;28;20238;-76
2022/10/24 19:00:58;;;;;;;0.00;0.00;;;;;;;16.79;67.43;97819.41;8281008;28;20240;-76
2022/10/24 19:05:14;;;;;;;0.00;0.00;;;;;;;16.83;67.22;97820.91;8281616;28;20241;-76
2022/10/24 19:09:19;;;;;;;0.00;0.00;;;;;;;16.80;67.08;97811.47;8281854;28;20285;-76
2022/10/24 19:13:23;;;;;;;0.00;0.00;;;;;;;16.77;66.70;97819.53;8282025;28;20232;-76
2022/10/24 19:17:26;;;;;;;0.00;0.00;;;;;;;16.65;67.49;97828.25;8281851;28;20429;-76
2022/10/24 19:21:30;;;;;;;0.00;0.00;;;;;;;16.67;67.34;97820.31;8281701;28;20234;-76